createdAt,value
2019-03-03T00:01:27.827Z,6.63
2019-03-03T00:04:36.220Z,6.64
2019-03-03T00:07:44.124Z,6.63
2019-03-03T00:10:53.628Z,6.69
2019-03-03T00:14:04.057Z,6.69
2019-03-03T00:17:11.487Z,6.64
2019-03-03T00:20:22.276Z,6.64
2019-03-03T00:23:33.989Z,6.60
2019-03-03T00:26:42.902Z,6.67
2019-03-03T00:29:52.668Z,6.67
2019-03-03T00:32:59.859Z,6.67
2019-03-03T00:36:07.356Z,6.63
2019-03-03T00:39:35.921Z,6.62
2019-03-03T00:43:06.903Z,6.62
2019-03-03T00:46:44.025Z,6.62
2019-03-03T00:50:19.037Z,6.59
2019-03-03T00:53:49.643Z,6.57
2019-03-03T00:57:05.673Z,6.57
2019-03-03T01:00:37.823Z,6.64
2019-03-03T01:04:02.041Z,6.61
2019-03-03T01:07:20.586Z,6.71
2019-03-03T01:10:35.060Z,6.76
2019-03-03T01:14:03.828Z,6.85
2019-03-03T01:17:22.120Z,6.76
2019-03-03T01:20:47.977Z,6.82
2019-03-03T01:24:19.405Z,6.94
2019-03-03T01:27:26.560Z,6.92
2019-03-03T01:30:33.327Z,6.80
2019-03-03T01:33:39.743Z,6.79
2019-03-03T01:36:46.472Z,6.82
2019-03-03T01:39:52.982Z,6.76
2019-03-03T01:42:59.302Z,6.78
2019-03-03T01:46:06.280Z,6.84
2019-03-03T01:49:13.010Z,6.84
2019-03-03T01:52:19.726Z,6.86
2019-03-03T01:55:26.256Z,6.94
2019-03-03T01:58:33.216Z,6.98
2019-03-03T02:01:39.761Z,6.91
2019-03-03T02:04:46.654Z,6.91
2019-03-03T02:07:53.327Z,6.96
2019-03-03T02:10:59.743Z,6.89
2019-03-03T02:14:06.184Z,6.89
2019-03-03T02:17:12.534Z,6.82
2019-03-03T02:20:18.869Z,6.86
2019-03-03T02:23:26.015Z,6.84
2019-03-03T02:26:32.328Z,6.78
2019-03-03T02:29:39.602Z,6.76
2019-03-03T02:32:45.726Z,6.68
2019-03-03T02:35:52.383Z,6.74
2019-03-03T02:38:58.885Z,6.73
2019-03-03T02:42:05.514Z,6.88
2019-03-03T02:45:12.800Z,6.76
2019-03-03T02:48:20.070Z,6.70
2019-03-03T02:51:27.217Z,6.81
2019-03-03T02:54:33.891Z,6.78
2019-03-03T02:57:40.892Z,6.73
2019-03-03T03:01:02.707Z,6.65
2019-03-03T03:04:09.712Z,6.55
2019-03-03T03:09:27.429Z,6.47
2019-03-03T03:12:51.786Z,6.28
2019-03-03T03:16:04.165Z,6.28
2019-03-03T03:19:32.366Z,6.26
2019-03-03T03:22:57.427Z,6.37
2019-03-03T03:26:21.425Z,6.38
2019-03-03T03:29:47.619Z,6.25
2019-03-03T03:33:14.511Z,6.23
2019-03-03T03:36:30.694Z,6.25
2019-03-03T03:39:49.842Z,6.24
2019-03-03T03:43:14.999Z,6.27
2019-03-03T03:46:49.772Z,6.18
2019-03-03T03:50:30.315Z,6.17
2019-03-03T03:54:04.485Z,6.19
2019-03-03T03:57:27.049Z,6.26
2019-03-03T04:01:04.408Z,6.26
2019-03-03T04:04:28.462Z,6.17
2019-03-03T04:07:53.858Z,6.30
2019-03-03T04:11:12.550Z,6.19
2019-03-03T04:14:32.387Z,6.41
2019-03-03T04:18:04.539Z,6.40
2019-03-03T04:21:39.193Z,6.49
2019-03-03T04:25:05.647Z,6.52
2019-03-03T04:28:36.541Z,6.41
2019-03-03T04:31:59.604Z,6.37
2019-03-03T04:35:25.378Z,6.38
2019-03-03T04:38:57.029Z,6.50
2019-03-03T04:42:15.828Z,6.54
2019-03-03T04:45:28.240Z,6.52
2019-03-03T04:48:53.718Z,6.55
2019-03-03T04:52:19.335Z,6.56
2019-03-03T04:55:47.885Z,6.54
2019-03-03T04:59:25.422Z,6.53
2019-03-03T05:02:41.876Z,6.51
2019-03-03T05:06:03.807Z,6.46
2019-03-03T05:09:35.891Z,6.61
2019-03-03T05:12:56.814Z,6.76
2019-03-03T05:16:27.022Z,6.78
2019-03-03T05:19:52.708Z,6.75
2019-03-03T05:22:59.033Z,6.81
2019-03-03T05:26:05.884Z,6.95
2019-03-03T05:29:12.299Z,7.01
2019-03-03T05:32:18.384Z,6.96
2019-03-03T05:35:25.135Z,6.98
2019-03-03T05:38:31.980Z,6.93
2019-03-03T05:41:38.726Z,7.09
2019-03-03T05:44:45.110Z,7.06
2019-03-03T05:47:51.465Z,7.10
2019-03-03T05:50:58.576Z,7.00
2019-03-03T05:54:05.302Z,6.97
2019-03-03T05:57:12.073Z,6.95
2019-03-03T06:00:19.342Z,7.10
2019-03-03T06:03:25.729Z,7.05
2019-03-03T06:06:32.290Z,7.07
2019-03-03T06:09:38.727Z,7.06
2019-03-03T06:12:45.314Z,7.01
2019-03-03T06:15:52.109Z,6.97
2019-03-03T06:18:58.739Z,6.95
2019-03-03T06:22:05.743Z,7.08
2019-03-03T06:25:12.463Z,7.11
2019-03-03T06:28:19.272Z,7.14
2019-03-03T06:31:26.770Z,7.06
2019-03-03T06:34:33.654Z,7.08
2019-03-03T06:37:40.119Z,7.12
2019-03-03T06:40:46.750Z,7.13
2019-03-03T06:43:53.222Z,7.18
2019-03-03T06:46:59.679Z,7.14
2019-03-03T06:50:07.378Z,7.21
2019-03-03T06:53:13.895Z,7.23
2019-03-03T06:56:20.355Z,7.08
2019-03-03T06:59:26.813Z,7.21
2019-03-03T07:02:33.390Z,7.30
2019-03-03T07:05:40.732Z,7.18
2019-03-03T07:08:47.149Z,7.30
2019-03-03T07:11:53.681Z,7.30
2019-03-03T07:15:00.347Z,7.38
2019-03-03T07:18:06.930Z,7.36
2019-03-03T07:21:13.345Z,7.36
2019-03-03T07:24:19.777Z,7.44
2019-03-03T07:27:26.935Z,7.45
2019-03-03T07:30:33.597Z,7.52
2019-03-03T07:33:43.787Z,7.48
2019-03-03T07:36:50.137Z,7.53
2019-03-03T07:39:56.884Z,7.48
2019-03-03T07:43:04.019Z,7.53
2019-03-03T07:46:10.537Z,7.57
2019-03-03T07:49:17.630Z,7.58
2019-03-03T07:52:24.553Z,7.62
2019-03-03T07:55:31.341Z,7.67
2019-03-03T07:58:38.259Z,7.62
2019-03-03T08:01:45.830Z,7.71
2019-03-03T08:04:52.701Z,7.66
2019-03-03T08:07:59.372Z,7.63
2019-03-03T08:11:05.990Z,7.63
2019-03-03T08:14:12.950Z,7.67
2019-03-03T08:17:19.258Z,7.62
2019-03-03T08:20:25.909Z,7.62
2019-03-03T08:23:36.262Z,7.63
2019-03-03T08:26:43.527Z,7.73
2019-03-03T08:29:50.296Z,7.70
2019-03-03T08:32:57.345Z,7.79
2019-03-03T08:36:04.198Z,7.94
2019-03-03T08:39:11.796Z,7.92
2019-03-03T08:42:49.675Z,8.09
2019-03-03T08:46:13.864Z,8.14
2019-03-03T08:49:45.532Z,8.22
2019-03-03T08:53:15.264Z,8.29
2019-03-03T08:56:42.763Z,8.28
2019-03-03T09:00:14.713Z,8.10
2019-03-03T09:03:38.871Z,8.18
2019-03-03T09:07:16.413Z,8.19
2019-03-03T09:10:30.152Z,7.96
2019-03-03T09:13:47.821Z,7.92
2019-03-03T09:17:19.416Z,7.99
2019-03-03T09:20:51.355Z,8.11
2019-03-03T09:24:17.264Z,8.12
2019-03-03T09:27:41.487Z,8.23
2019-03-03T09:31:16.424Z,8.27
2019-03-03T09:34:41.177Z,8.32
2019-03-03T09:38:15.981Z,8.38
2019-03-03T09:41:45.274Z,8.33
2019-03-03T09:45:10.020Z,8.30
2019-03-03T09:48:34.093Z,8.41
2019-03-03T09:51:54.237Z,8.42
2019-03-03T09:55:26.128Z,8.33
2019-03-03T09:58:50.520Z,8.35
2019-03-03T10:02:14.416Z,8.35
2019-03-03T10:05:50.222Z,8.37
2019-03-03T10:09:15.775Z,8.34
2019-03-03T10:12:32.840Z,8.31
2019-03-03T10:16:06.113Z,8.36
2019-03-03T10:19:22.219Z,8.44
2019-03-03T10:22:42.208Z,8.44
2019-03-03T10:26:07.993Z,8.39
2019-03-03T10:29:37.027Z,8.38
2019-03-03T10:33:16.763Z,8.52
2019-03-03T10:36:42.691Z,8.61
2019-03-03T10:39:58.447Z,8.53
2019-03-03T10:43:44.529Z,8.60
2019-03-03T10:47:13.293Z,8.60
2019-03-03T10:50:38.998Z,8.50
2019-03-03T10:54:10.996Z,8.63
2019-03-03T10:57:39.496Z,8.80
2019-03-03T11:01:18.187Z,8.86
2019-03-03T11:04:42.734Z,8.93
2019-03-03T11:08:11.206Z,9.00
2019-03-03T11:11:37.385Z,8.98
2019-03-03T11:15:06.373Z,8.96
2019-03-03T11:18:32.471Z,8.97
2019-03-03T11:22:07.909Z,9.01
2019-03-03T11:25:23.639Z,8.98
2019-03-03T11:29:07.671Z,8.98
2019-03-03T11:32:42.821Z,8.93
2019-03-03T11:36:11.686Z,8.96
2019-03-03T11:39:39.597Z,9.13
2019-03-03T11:42:53.952Z,9.20
2019-03-03T11:46:11.287Z,9.07
2019-03-03T11:49:32.502Z,9.26
2019-03-03T11:53:04.281Z,9.33
2019-03-03T11:56:28.585Z,9.30
2019-03-03T11:59:46.785Z,9.48
2019-03-03T12:03:08.904Z,9.54
2019-03-03T12:06:26.312Z,9.43
2019-03-03T12:10:00.842Z,9.49
2019-03-03T12:13:15.689Z,9.62
2019-03-03T12:16:48.440Z,9.53
2019-03-03T12:20:08.842Z,9.69
2019-03-03T12:23:49.687Z,9.76
2019-03-03T12:27:15.360Z,9.80
2019-03-03T12:30:34.373Z,9.93
2019-03-03T12:33:48.006Z,10.09
2019-03-03T12:37:13.698Z,10.26
2019-03-03T12:40:42.174Z,10.24
2019-03-03T12:44:10.240Z,10.15
2019-03-03T12:47:35.513Z,10.21
2019-03-03T12:50:55.229Z,10.25
2019-03-03T12:54:23.294Z,10.08
2019-03-03T12:57:51.987Z,9.92
2019-03-03T13:01:17.967Z,10.06
2019-03-03T13:04:39.092Z,9.87
2019-03-03T13:08:21.600Z,9.70
2019-03-03T13:11:39.913Z,9.54
2019-03-03T13:15:14.936Z,9.33
2019-03-03T13:18:32.021Z,9.06
2019-03-03T13:21:46.592Z,9.06
2019-03-03T13:25:21.691Z,9.10
2019-03-03T13:28:34.261Z,9.12
2019-03-03T13:32:09.566Z,9.14
2019-03-03T13:35:37.832Z,9.13
2019-03-03T13:38:52.063Z,9.14
2019-03-03T13:42:09.605Z,9.15
2019-03-03T13:45:16.433Z,9.27
2019-03-03T13:48:23.361Z,9.07
2019-03-03T13:51:30.127Z,9.19
2019-03-03T13:54:38.076Z,9.14
2019-03-03T13:57:45.181Z,9.21
2019-03-03T14:00:53.019Z,9.02
2019-03-03T14:04:01.289Z,9.08
2019-03-03T14:07:08.233Z,9.16
2019-03-03T14:10:16.081Z,9.13
2019-03-03T14:13:24.376Z,9.18
2019-03-03T14:16:30.918Z,9.17
2019-03-03T14:19:38.675Z,9.20
2019-03-03T14:22:45.788Z,9.31
2019-03-03T14:25:55.511Z,9.28
2019-03-03T14:29:02.687Z,9.27
2019-03-03T14:32:09.617Z,9.19
2019-03-03T14:35:17.916Z,9.19
2019-03-03T14:38:26.088Z,9.18
2019-03-03T14:41:33.295Z,9.06
2019-03-03T14:44:39.745Z,9.05
2019-03-03T14:47:48.258Z,9.06
2019-03-03T14:50:55.285Z,8.97
2019-03-03T14:54:02.211Z,8.95
2019-03-03T14:57:09.340Z,9.10
2019-03-03T15:00:27.291Z,9.03
2019-03-03T15:03:34.379Z,8.95
2019-03-03T15:06:41.582Z,9.04
2019-03-03T15:09:48.540Z,8.99
2019-03-03T15:12:58.003Z,9.04
2019-03-03T15:16:04.296Z,8.95
2019-03-03T15:19:10.930Z,9.05
2019-03-03T15:22:17.770Z,9.07
2019-03-03T15:25:25.222Z,9.06
2019-03-03T15:28:31.679Z,9.07
2019-03-03T15:31:39.425Z,9.06
2019-03-03T15:34:46.450Z,9.07
2019-03-03T15:37:53.538Z,9.07
2019-03-03T15:41:00.363Z,9.17
2019-03-03T15:44:07.029Z,9.15
2019-03-03T15:47:13.915Z,9.17
2019-03-03T15:50:21.067Z,9.06
2019-03-03T15:53:27.706Z,9.03
2019-03-03T15:56:34.862Z,8.96
2019-03-03T15:59:41.964Z,8.89
2019-03-03T16:02:48.946Z,8.90
2019-03-03T16:05:58.061Z,8.82
2019-03-03T16:09:12.086Z,8.80
2019-03-03T16:12:19.320Z,8.73
2019-03-03T16:15:28.002Z,8.57
2019-03-03T16:18:38.861Z,8.53
2019-03-03T16:21:47.183Z,8.64
2019-03-03T16:24:56.264Z,8.58
2019-03-03T16:28:03.800Z,8.52
2019-03-03T16:31:10.738Z,8.57
2019-03-03T16:34:17.717Z,8.58
2019-03-03T16:37:26.790Z,8.63
2019-03-03T16:40:39.505Z,8.55
2019-03-03T16:43:42.807Z,8.54
2019-03-03T16:46:50.070Z,8.58
2019-03-03T16:49:58.974Z,8.54
2019-03-03T16:53:05.894Z,8.53
2019-03-03T16:56:14.107Z,8.56
2019-03-03T16:59:21.218Z,8.61
2019-03-03T17:02:27.947Z,8.58
2019-03-03T17:05:35.379Z,8.60
2019-03-03T17:08:41.893Z,8.65
2019-03-03T17:11:48.358Z,8.69
2019-03-03T17:14:55.500Z,8.67
2019-03-03T17:18:03.081Z,8.63
2019-03-03T17:21:10.252Z,8.62
2019-03-03T17:24:17.137Z,8.63
2019-03-03T17:27:25.121Z,8.57
2019-03-03T17:30:31.899Z,8.65
2019-03-03T17:33:38.858Z,8.60
2019-03-03T17:36:46.066Z,8.61
2019-03-03T17:39:52.974Z,8.59
2019-03-03T17:42:59.840Z,8.58
2019-03-03T17:46:07.644Z,8.60
2019-03-03T17:49:15.228Z,8.58
2019-03-03T17:52:24.096Z,8.64
2019-03-03T17:55:31.607Z,8.60
2019-03-03T17:58:38.816Z,8.44
2019-03-03T18:01:46.879Z,8.45
2019-03-03T18:04:53.740Z,8.51
2019-03-03T18:08:01.090Z,8.59
2019-03-03T18:11:08.175Z,8.50
2019-03-03T18:14:15.012Z,8.51
2019-03-03T18:17:22.531Z,8.53
2019-03-03T18:20:47.947Z,8.53
2019-03-03T18:24:12.611Z,8.50
2019-03-03T18:27:36.959Z,8.52
2019-03-03T18:34:46.337Z,8.48
2019-03-03T18:38:10.951Z,8.58
2019-03-03T18:41:36.385Z,8.64
2019-03-03T18:45:01.788Z,8.77
2019-03-03T18:48:27.628Z,8.77
2019-03-03T18:51:53.214Z,8.73
2019-03-03T18:55:17.994Z,8.74
2019-03-03T18:58:42.911Z,8.76
2019-03-03T19:02:08.818Z,8.73
2019-03-03T19:05:33.648Z,8.70
2019-03-03T19:09:02.235Z,8.73
2019-03-03T19:12:32.038Z,8.70
2019-03-03T19:15:57.260Z,8.68
2019-03-03T19:19:21.992Z,8.76
2019-03-03T19:22:46.779Z,8.68
2019-03-03T19:26:11.318Z,8.66
2019-03-03T19:29:35.665Z,8.62
2019-03-03T19:33:04.164Z,8.69
2019-03-03T19:36:29.961Z,8.59
2019-03-03T19:39:54.262Z,8.60
2019-03-03T19:43:19.275Z,8.58
2019-03-03T19:46:44.114Z,8.62
2019-03-03T19:50:10.213Z,8.66
2019-03-03T19:53:35.042Z,8.66
2019-03-03T19:56:59.785Z,8.63
2019-03-03T20:00:35.057Z,8.62
2019-03-03T20:03:54.942Z,8.66
2019-03-03T20:07:19.858Z,8.54
2019-03-03T20:10:44.544Z,8.58
2019-03-03T20:14:09.821Z,8.50
2019-03-03T20:17:34.732Z,8.51
2019-03-03T20:21:00.296Z,8.50
2019-03-03T20:24:24.568Z,8.41
2019-03-03T20:27:49.309Z,8.39
2019-03-03T20:31:17.084Z,8.42
2019-03-03T20:34:41.634Z,8.37
2019-03-03T20:38:06.592Z,8.36
2019-03-03T20:41:31.445Z,8.29
2019-03-03T20:44:56.139Z,8.36
2019-03-03T20:48:23.327Z,8.34
2019-03-03T20:51:49.520Z,8.46
2019-03-03T20:55:14.895Z,8.39
2019-03-03T20:58:39.935Z,8.44
2019-03-03T21:02:04.434Z,8.38
2019-03-03T21:05:29.497Z,8.33
2019-03-03T21:08:54.391Z,8.29
2019-03-03T21:12:19.426Z,8.28
2019-03-03T21:15:43.950Z,8.29
2019-03-03T21:19:08.841Z,8.25
2019-03-03T21:22:33.286Z,8.36
2019-03-03T21:25:57.880Z,8.34
2019-03-03T21:29:22.788Z,8.29
2019-03-03T21:32:47.740Z,8.28
2019-03-03T21:36:12.623Z,8.31
2019-03-03T21:39:37.774Z,8.17
2019-03-03T21:43:02.320Z,8.23
2019-03-03T21:46:27.205Z,8.11
2019-03-03T21:49:53.343Z,8.16
2019-03-03T21:53:17.781Z,8.09
2019-03-03T21:56:43.099Z,8.13
2019-03-03T22:00:20.430Z,8.14
2019-03-03T22:03:45.264Z,8.32
2019-03-03T22:07:10.755Z,8.28
2019-03-03T22:10:35.647Z,8.23
2019-03-03T22:14:00.869Z,8.24
2019-03-03T22:17:25.450Z,8.26
2019-03-03T22:20:50.413Z,8.31
2019-03-03T22:24:14.962Z,8.40
2019-03-03T22:27:39.930Z,8.36
2019-03-03T22:31:04.352Z,8.33
2019-03-03T22:34:29.243Z,8.45
2019-03-03T22:37:56.863Z,8.43
2019-03-03T22:41:21.582Z,8.41
2019-03-03T22:44:45.894Z,8.41
2019-03-03T22:48:10.603Z,8.41
2019-03-03T22:51:36.514Z,8.23
2019-03-03T22:55:00.567Z,8.31
2019-03-03T22:58:26.448Z,8.39
2019-03-03T23:01:51.155Z,8.41
2019-03-03T23:05:35.396Z,8.38
2019-03-03T23:09:22.847Z,8.31
2019-03-03T23:13:15.760Z,8.37
2019-03-03T23:17:24.620Z,8.54
2019-03-03T23:21:24.541Z,8.58
2019-03-03T23:25:29.928Z,8.55
2019-03-03T23:28:54.679Z,8.50
2019-03-03T23:32:19.424Z,8.47
2019-03-03T23:35:43.764Z,8.54
2019-03-03T23:39:09.374Z,8.62
2019-03-03T23:42:34.194Z,8.54
2019-03-03T23:45:58.701Z,8.58
2019-03-03T23:49:23.172Z,8.40
2019-03-03T23:52:47.236Z,8.39
2019-03-03T23:56:11.429Z,8.29
2019-03-03T23:59:35.763Z,8.23
